Time;durP1;ratioP1;P1;durP2;ratioP2;P2;SDS_P1;SDS_P2;PMS_P1;PMS_P2;Temp;Humidity;BMP_temperature;BMP_pressure;BME280_temperature;BME280_humidity;BME280_pressure;Samples;Min_cycle;Max_cycle;Signal;HPM_P1;HPM_P2
2021/08/29 00:02:20;;;;;;;7.20;6.60;;;17.10;99.90;;;;;;5015442;28;20439;-51
2021/08/29 00:04:47;;;;;;;8.80;7.77;;;17.00;99.90;;;;;;5014591;28;20458;-52
2021/08/29 00:07:14;;;;;;;8.17;7.40;;;17.10;99.90;;;;;;5015273;28;20447;-51
2021/08/29 00:09:40;;;;;;;6.87;6.27;;;17.20;99.90;;;;;;5015060;28;20431;-50
2021/08/29 00:12:08;;;;;;;8.27;7.47;;;17.10;99.90;;;;;;5015215;28;20438;-51
2021/08/29 00:14:34;;;;;;;7.00;6.40;;;17.10;99.90;;;;;;5015110;28;20807;-51
2021/08/29 00:17:01;;;;;;;8.17;7.33;;;17.20;99.90;;;;;;5014967;28;20778;-51
2021/08/29 00:19:29;;;;;;;6.90;6.30;;;17.20;99.90;;;;;;5014761;28;20485;-51
2021/08/29 00:21:55;;;;;;;6.70;6.03;;;17.20;99.90;;;;;;5015895;28;20433;-51
2021/08/29 00:24:22;;;;;;;6.47;5.87;;;17.20;99.90;;;;;;5029099;23;20523;-51
2021/08/29 00:26:48;;;;;;;7.23;5.53;;;17.10;99.90;;;;;;5014663;28;20435;-51
2021/08/29 00:29:15;;;;;;;8.97;7.17;;;17.20;99.90;;;;;;5012924;28;20437;-51
2021/08/29 00:31:42;;;;;;;7.23;6.53;;;17.20;99.90;;;;;;5014154;28;20446;-51
2021/08/29 00:34:08;;;;;;;7.00;6.40;;;17.10;99.90;;;;;;5014345;28;20511;-51
2021/08/29 00:36:36;;;;;;;7.50;6.80;;;17.10;99.90;;;;;;5014761;28;20794;-51
2021/08/29 00:39:03;;;;;;;8.47;7.13;;;17.10;99.90;;;;;;5014249;28;20757;-50
2021/08/29 00:41:30;;;;;;;7.70;6.90;;;17.10;99.90;;;;;;5013253;28;20510;-50
2021/08/29 00:43:57;;;;;;;8.20;7.40;;;17.10;99.90;;;;;;5014462;28;20437;-51
2021/08/29 00:46:24;;;;;;;8.23;7.53;;;17.10;99.90;;;;;;5012798;28;20472;-51
2021/08/29 00:48:52;;;;;;;8.43;7.53;;;17.10;99.90;;;;;;5012468;28;20452;-51
2021/08/29 00:51:19;;;;;;;9.40;8.50;;;17.10;99.90;;;;;;5012740;28;20484;-51
2021/08/29 00:53:48;;;;;;;8.40;7.60;;;17.20;99.90;;;;;;5014200;28;20438;-51
2021/08/29 00:56:16;;;;;;;8.63;7.70;;;16.90;99.90;;;;;;5012929;28;20448;-51
2021/08/29 00:58:43;;;;;;;10.73;9.20;;;17.10;99.90;;;;;;5013520;28;20546;-51
2021/08/29 01:01:11;;;;;;;7.33;6.67;;;17.10;99.90;;;;;;5012641;28;20445;-51
2021/08/29 01:03:40;;;;;;;9.40;6.77;;;17.10;99.90;;;;;;5012665;28;20469;-51
2021/08/29 01:06:15;;;;;;;7.67;7.00;;;17.10;99.90;;;;;;5012397;28;20452;-51
2021/08/29 01:09:06;;;;;;;8.67;7.80;;;17.10;99.90;;;;;;5014121;28;20984;-51
2021/08/29 01:11:37;;;;;;;7.70;6.90;;;17.10;99.90;;;;;;5012673;28;20462;-51
2021/08/29 01:14:06;;;;;;;7.80;7.10;;;17.10;99.90;;;;;;5012586;28;20512;-51
2021/08/29 01:16:36;;;;;;;6.60;5.90;;;16.70;99.90;;;;;;5013626;28;20968;-51
2021/08/29 01:19:09;;;;;;;6.57;5.87;;;17.00;99.90;;;;;;5012410;28;20517;-51
2021/08/29 01:21:37;;;;;;;7.10;6.40;;;17.00;99.90;;;;;;5012388;28;20993;-51
2021/08/29 01:24:13;;;;;;;6.40;5.70;;;17.00;99.90;;;;;;5012274;28;20537;-51
2021/08/29 01:26:56;;;;;;;8.13;6.30;;;17.20;99.90;;;;;;5012265;28;20454;-51
2021/08/29 01:29:30;;;;;;;6.77;6.17;;;17.00;99.90;;;;;;5011484;28;20449;-50
2021/08/29 01:32:01;;;;;;;7.93;5.60;;;16.90;99.90;;;;;;5012066;28;20962;-51
2021/08/29 01:34:27;;;;;;;7.83;5.17;;;17.00;99.90;;;;;;5012130;28;20529;-51
2021/08/29 01:37:17;;;;;;;7.63;6.93;;;16.90;99.90;;;;;;5012146;28;20519;-51
2021/08/29 01:39:46;;;;;;;8.43;6.40;;;16.90;99.90;;;;;;5011742;28;20485;-51
2021/08/29 01:42:19;;;;;;;6.93;6.33;;;17.10;99.90;;;;;;5011985;28;20547;-51
2021/08/29 01:44:47;;;;;;;7.00;6.40;;;16.80;99.90;;;;;;5013059;28;20854;-51
2021/08/29 01:47:16;;;;;;;6.03;5.53;;;16.80;99.90;;;;;;5011473;28;20458;-51
2021/08/29 01:49:46;;;;;;;6.43;5.93;;;17.00;99.90;;;;;;5011070;28;20471;-51
2021/08/29 01:52:13;;;;;;;6.63;5.93;;;17.00;99.90;;;;;;5011815;28;20531;-51
2021/08/29 01:54:59;;;;;;;6.67;5.90;;;16.90;99.90;;;;;;5011957;28;21019;-51
2021/08/29 01:58:04;;;;;;;6.97;6.27;;;17.00;99.90;;;;;;4951937;29;20450;-51
2021/08/29 02:00:49;;;;;;;6.70;6.10;;;16.90;99.90;;;;;;4936351;29;20451;-51
2021/08/29 02:03:18;;;;;;;7.50;6.70;;;17.00;99.90;;;;;;4980735;28;20509;-50
2021/08/29 02:05:58;;;;;;;6.40;5.67;;;17.00;99.90;;;;;;5011702;28;20985;-50
2021/08/29 02:08:26;;;;;;;5.43;4.90;;;17.00;99.90;;;;;;5011199;28;20453;-51
2021/08/29 02:10:57;;;;;;;5.20;4.80;;;17.00;99.90;;;;;;5011498;28;20499;-51
2021/08/29 02:13:31;;;;;;;6.27;5.67;;;16.90;99.90;;;;;;5011775;28;20548;-51
2021/08/29 02:16:05;;;;;;;7.20;5.13;;;16.90;99.90;;;;;;5010420;28;20518;-51
2021/08/29 02:18:35;;;;;;;5.57;5.07;;;17.00;99.90;;;;;;5010824;28;20530;-51
2021/08/29 02:21:02;;;;;;;5.27;4.87;;;16.90;99.90;;;;;;5011490;28;20768;-51
2021/08/29 02:23:29;;;;;;;5.80;5.30;;;16.90;99.90;;;;;;5011501;28;20457;-51
2021/08/29 02:25:57;;;;;;;5.50;5.00;;;16.90;99.90;;;;;;5011150;28;20503;-51
2021/08/29 02:28:25;;;;;;;5.77;5.27;;;17.00;99.90;;;;;;5011136;28;20460;-52
2021/08/29 02:30:52;;;;;;;5.50;5.00;;;16.90;99.90;;;;;;5011771;28;20451;-51
2021/08/29 02:33:21;;;;;;;6.00;4.63;;;16.90;99.90;;;;;;5011304;28;20457;-51
2021/08/29 02:35:49;;;;;;;5.50;5.00;;;16.90;99.90;;;;;;5011170;28;20953;-51
2021/08/29 02:38:21;;;;;;;5.07;4.60;;;16.90;99.90;;;;;;5011006;28;20483;-51
2021/08/29 02:40:50;;;;;;;5.03;4.53;;;16.80;99.90;;;;;;5011016;28;20460;-51
2021/08/29 02:43:19;;;;;;;4.17;3.73;;;16.80;99.90;;;;;;5010989;28;20507;-50
2021/08/29 02:45:47;;;;;;;4.10;3.73;;;16.90;99.90;;;;;;5011146;28;20482;-50
2021/08/29 02:48:24;;;;;;;3.10;2.80;;;16.60;99.90;;;;;;5010571;28;20457;-51
2021/08/29 02:50:52;;;;;;;4.67;3.70;;;16.80;99.90;;;;;;5010884;28;20456;-51
2021/08/29 02:53:21;;;;;;;3.80;3.50;;;16.80;99.90;;;;;;5010973;28;20483;-51
2021/08/29 02:55:55;;;;;;;3.70;3.40;;;16.80;99.90;;;;;;5011084;28;20468;-50
2021/08/29 02:58:22;;;;;;;3.53;2.83;;;16.80;99.90;;;;;;5010300;28;20455;-51
2021/08/29 03:01:15;;;;;;;4.27;3.87;;;16.80;99.90;;;;;;5010600;28;21084;-50
2021/08/29 03:04:07;;;;;;;5.03;4.00;;;16.80;99.90;;;;;;5011988;28;20476;-50
2021/08/29 03:06:37;;;;;;;3.93;3.20;;;16.80;99.90;;;;;;5010851;28;20488;-51
2021/08/29 03:09:06;;;;;;;3.63;3.27;;;16.70;99.90;;;;;;5010199;28;20475;-50
2021/08/29 03:11:36;;;;;;;3.57;3.27;;;16.70;99.90;;;;;;5010769;28;20446;-51
2021/08/29 03:14:03;;;;;;;2.60;2.40;;;16.80;99.90;;;;;;5010754;28;20469;-51
2021/08/29 03:16:32;;;;;;;3.77;3.00;;;16.70;99.90;;;;;;5010423;28;20472;-51
2021/08/29 03:19:15;;;;;;;3.10;2.90;;;16.90;99.90;;;;;;5009935;28;20532;-51
2021/08/29 03:21:49;;;;;;;2.97;2.77;;;16.70;99.90;;;;;;5010606;28;21026;-51
2021/08/29 03:24:17;;;;;;;2.70;2.33;;;16.70;99.90;;;;;;5010412;28;20485;-51
2021/08/29 03:26:44;;;;;;;2.70;2.50;;;16.70;99.90;;;;;;5010333;28;20422;-51
2021/08/29 03:29:20;;;;;;;3.50;3.20;;;16.80;99.90;;;;;;5012042;28;20498;-51
2021/08/29 03:31:48;;;;;;;3.70;2.77;;;16.80;99.90;;;;;;5014541;28;20448;-51
2021/08/29 03:34:19;;;;;;;2.70;2.50;;;16.70;99.90;;;;;;5014236;28;20535;-51
2021/08/29 03:36:46;;;;;;;2.83;2.63;;;16.80;99.90;;;;;;5014491;28;20850;-51
2021/08/29 03:39:17;;;;;;;2.77;2.57;;;16.70;99.90;;;;;;5013957;28;20495;-51
2021/08/29 03:41:46;;;;;;;2.70;2.20;;;16.60;99.90;;;;;;5014387;28;20547;-51
2021/08/29 03:44:15;;;;;;;2.37;2.03;;;16.60;99.90;;;;;;5014119;28;20532;-51
2021/08/29 03:46:42;;;;;;;2.37;1.60;;;16.60;99.90;;;;;;5014349;28;20547;-51
2021/08/29 03:49:36;;;;;;;1.90;1.77;;;16.60;99.90;;;;;;5013885;28;20532;-51
2021/08/29 03:52:05;;;;;;;1.70;1.50;;;16.60;99.90;;;;;;5014070;28;21065;-51
2021/08/29 03:54:52;;;;;;;2.33;2.13;;;16.50;99.90;;;;;;5015237;28;21136;-51
2021/08/29 03:57:19;;;;;;;1.70;1.40;;;16.60;99.90;;;;;;5013915;28;20456;-51
2021/08/29 03:59:46;;;;;;;1.67;1.50;;;16.80;99.90;;;;;;5013463;28;20491;-50
2021/08/29 04:02:13;;;;;;;1.70;1.47;;;16.50;99.90;;;;;;5013745;28;20535;-51
2021/08/29 04:04:41;;;;;;;2.50;2.00;;;16.50;99.90;;;;;;5015347;28;20456;-51
2021/08/29 04:07:10;;;;;;;2.13;1.90;;;16.10;99.90;;;;;;5013848;28;20532;-51
2021/08/29 04:09:48;;;;;;;2.27;1.83;;;16.60;99.90;;;;;;5013562;28;20448;-51
2021/08/29 04:12:15;;;;;;;4.07;2.00;;;16.60;99.90;;;;;;5015012;28;20428;-51
2021/08/29 04:15:03;;;;;;;2.40;2.20;;;16.60;99.90;;;;;;5015082;28;20471;-52
2021/08/29 04:17:31;;;;;;;3.13;2.30;;;16.60;99.90;;;;;;5013790;28;20455;-51
2021/08/29 04:20:01;;;;;;;2.00;1.50;;;16.60;99.90;;;;;;5013257;28;20534;-50
2021/08/29 04:22:29;;;;;;;2.20;2.00;;;16.50;99.90;;;;;;5013639;28;20540;-50
2021/08/29 04:24:56;;;;;;;2.30;1.60;;;16.60;99.90;;;;;;5014926;28;20956;-51
2021/08/29 04:27:23;;;;;;;1.43;1.33;;;16.60;99.90;;;;;;5013611;28;20563;-51
2021/08/29 04:29:50;;;;;;;2.50;1.43;;;16.60;99.90;;;;;;5013072;28;20483;-51
2021/08/29 04:32:19;;;;;;;2.07;1.60;;;16.60;99.90;;;;;;5014717;28;20432;-51
2021/08/29 04:34:46;;;;;;;2.03;1.50;;;16.60;99.90;;;;;;5013710;28;20912;-50
2021/08/29 04:37:23;;;;;;;1.57;1.43;;;16.50;99.90;;;;;;5013492;28;20960;-50
2021/08/29 04:39:54;;;;;;;2.50;1.40;;;16.50;99.90;;;;;;5012667;28;20468;-51
2021/08/29 04:42:24;;;;;;;2.40;1.50;;;16.50;99.90;;;;;;5013554;28;20848;-51
2021/08/29 04:44:52;;;;;;;2.87;1.60;;;16.60;99.90;;;;;;5013089;28;20487;-50
2021/08/29 04:47:18;;;;;;;3.70;1.37;;;16.60;99.90;;;;;;5014677;28;20463;-50
2021/08/29 04:49:50;;;;;;;1.60;1.40;;;16.50;99.90;;;;;;5012852;28;20540;-51
2021/08/29 04:52:23;;;;;;;1.60;1.20;;;17.00;99.90;;;;;;5013121;28;20514;-51
2021/08/29 04:54:52;;;;;;;2.00;1.70;;;16.50;99.90;;;;;;5012886;28;20455;-51
2021/08/29 04:57:18;;;;;;;2.00;1.70;;;16.50;99.90;;;;;;5012877;28;20453;-51
2021/08/29 04:59:46;;;;;;;1.97;1.50;;;16.50;99.90;;;;;;5012522;28;20499;-51
2021/08/29 05:02:13;;;;;;;2.70;1.73;;;16.60;99.90;;;;;;5014263;28;21121;-50
2021/08/29 05:04:40;;;;;;;2.00;1.60;;;16.60;99.90;;;;;;5012980;28;20478;-51
2021/08/29 05:07:08;;;;;;;1.67;1.57;;;16.70;99.90;;;;;;5013074;28;20460;-51
2021/08/29 05:09:38;;;;;;;1.83;1.60;;;16.70;99.90;;;;;;5012411;28;20456;-51
2021/08/29 05:12:07;;;;;;;2.17;1.70;;;16.70;99.90;;;;;;5012823;28;20467;-51
2021/08/29 05:14:35;;;;;;;2.03;1.73;;;16.50;99.90;;;;;;5012633;28;20478;-51
2021/08/29 05:17:03;;;;;;;3.30;1.67;;;16.80;99.90;;;;;;5012637;28;20448;-51
2021/08/29 05:19:35;;;;;;;2.57;2.03;;;16.70;99.90;;;;;;5012189;28;20480;-51
2021/08/29 05:22:22;;;;;;;2.40;2.13;;;16.80;99.90;;;;;;5013543;28;20444;-51
2021/08/29 05:25:11;;;;;;;2.77;1.83;;;16.80;99.90;;;;;;4982495;28;20514;-51
2021/08/29 05:27:38;;;;;;;3.10;2.70;;;16.80;99.90;;;;;;5012061;28;20823;-52
2021/08/29 05:30:06;;;;;;;5.00;3.30;;;16.80;99.90;;;;;;5012351;28;20851;-51
2021/08/29 05:32:33;;;;;;;3.57;2.90;;;16.80;99.90;;;;;;5012187;28;20452;-52
2021/08/29 05:35:00;;;;;;;3.90;3.17;;;16.80;99.90;;;;;;5012202;28;20663;-51
2021/08/29 05:37:27;;;;;;;5.90;4.43;;;16.80;99.90;;;;;;5013593;28;20801;-51
2021/08/29 05:40:15;;;;;;;9.50;4.67;;;16.80;99.90;;;;;;5013218;28;20480;-50
2021/08/29 05:43:01;;;;;;;4.40;4.00;;;16.80;99.90;;;;;;5013147;28;20443;-51
2021/08/29 05:45:28;;;;;;;5.97;4.30;;;16.80;99.90;;;;;;5013202;28;20975;-51
2021/08/29 05:47:55;;;;;;;5.17;4.33;;;17.30;99.90;;;;;;5011631;28;21028;-51
2021/08/29 05:50:21;;;;;;;6.43;4.80;;;16.90;99.90;;;;;;5011910;28;20444;-51
2021/08/29 05:52:49;;;;;;;4.87;4.30;;;16.80;99.90;;;;;;5011039;28;20452;-51
2021/08/29 05:55:17;;;;;;;8.63;5.00;;;16.90;99.90;;;;;;5011806;28;20478;-51
2021/08/29 05:57:44;;;;;;;6.40;4.17;;;16.90;99.90;;;;;;5011440;28;20481;-52
2021/08/29 06:00:12;;;;;;;7.57;5.47;;;16.90;99.90;;;;;;5013147;28;20461;-51
2021/08/29 06:02:41;;;;;;;5.40;4.53;;;16.90;99.90;;;;;;5013304;28;20406;-51
2021/08/29 06:05:08;;;;;;;6.50;5.27;;;16.90;99.90;;;;;;5012888;28;20452;-51
2021/08/29 06:07:50;;;;;;;6.33;5.40;;;16.90;99.90;;;;;;5011420;28;20457;-51
2021/08/29 06:10:18;;;;;;;5.70;4.80;;;16.80;99.90;;;;;;5012770;28;20791;-50
2021/08/29 06:12:45;;;;;;;5.23;4.73;;;16.90;99.90;;;;;;5013064;28;20438;-52
2021/08/29 06:15:12;;;;;;;6.30;5.70;;;16.90;99.90;;;;;;5011528;28;20530;-51
2021/08/29 06:17:39;;;;;;;7.60;5.17;;;16.90;99.90;;;;;;5011216;28;20922;-51
2021/08/29 06:20:06;;;;;;;5.57;5.07;;;16.90;99.90;;;;;;5011497;28;20487;-50
2021/08/29 06:22:33;;;;;;;5.43;4.73;;;16.90;99.90;;;;;;5011526;28;20961;-51
2021/08/29 06:25:20;;;;;;;6.57;5.07;;;16.90;99.90;;;;;;5035414;23;20559;-52
2021/08/29 06:28:25;;;;;;;6.53;5.47;;;17.00;99.90;;;;;;5012283;28;20562;-52
2021/08/29 06:31:27;;;;;;;6.33;5.13;;;17.00;99.90;;;;;;5012439;28;20527;-51
2021/08/29 06:34:26;;;;;;;6.97;6.27;;;17.00;99.90;;;;;;5011224;28;20456;-52
2021/08/29 06:36:53;;;;;;;5.67;5.03;;;17.00;99.90;;;;;;5011025;28;20553;-51
2021/08/29 06:39:19;;;;;;;5.43;4.93;;;17.00;99.90;;;;;;5011701;28;20527;-51
2021/08/29 06:41:47;;;;;;;6.93;5.20;;;17.00;99.90;;;;;;5011004;28;20481;-52
2021/08/29 06:44:19;;;;;;;6.50;5.60;;;17.00;99.90;;;;;;5010995;28;20455;-51
2021/08/29 06:47:00;;;;;;;6.00;5.33;;;17.00;99.90;;;;;;5012415;28;20532;-52
2021/08/29 06:49:46;;;;;;;5.63;5.13;;;17.00;99.90;;;;;;5012268;28;20423;-51
2021/08/29 06:52:38;;;;;;;5.80;5.20;;;17.00;99.90;;;;;;5012047;28;20433;-51
2021/08/29 06:55:23;;;;;;;5.30;4.80;;;17.00;99.90;;;;;;5012041;28;20440;-52
2021/08/29 06:58:14;;;;;;;8.23;4.93;;;17.00;99.90;;;;;;5011366;28;20445;-52
2021/08/29 07:00:42;;;;;;;4.63;4.20;;;17.00;99.90;;;;;;5010822;28;20998;-51
2021/08/29 07:03:11;;;;;;;6.33;4.97;;;17.00;99.90;;;;;;5010940;28;20941;-52
2021/08/29 07:05:38;;;;;;;5.20;4.10;;;17.00;99.90;;;;;;5010484;28;20547;-52
2021/08/29 07:08:20;;;;;;;5.80;4.70;;;17.00;99.90;;;;;;5009965;28;20441;-52
2021/08/29 07:10:46;;;;;;;5.33;4.73;;;17.10;99.90;;;;;;5010643;28;20499;-52
2021/08/29 07:13:33;;;;;;;5.80;4.57;;;17.10;99.90;;;;;;5012378;28;20438;-52
2021/08/29 07:16:00;;;;;;;5.60;4.90;;;17.10;99.90;;;;;;5011651;28;20543;-51
2021/08/29 07:18:27;;;;;;;5.33;4.33;;;17.20;99.90;;;;;;5010023;28;20499;-52
2021/08/29 07:21:17;;;;;;;5.33;4.77;;;17.20;99.90;;;;;;5003449;28;20493;-52
2021/08/29 07:24:06;;;;;;;6.10;5.50;;;17.20;99.90;;;;;;5011554;28;20453;-51
2021/08/29 07:26:51;;;;;;;5.93;5.20;;;17.20;99.90;;;;;;5011735;28;20440;-52
2021/08/29 07:29:38;;;;;;;5.07;3.73;;;17.20;99.90;;;;;;5011320;28;20424;-51
2021/08/29 07:32:23;;;;;;;4.80;4.00;;;17.30;99.90;;;;;;5011932;28;20497;-51
2021/08/29 07:34:50;;;;;;;4.77;4.27;;;17.30;99.90;;;;;;5010282;28;20476;-52
2021/08/29 07:37:40;;;;;;;4.80;4.30;;;17.30;99.90;;;;;;5003185;28;20449;-52
2021/08/29 07:40:08;;;;;;;4.17;3.60;;;17.40;99.90;;;;;;5010383;28;21011;-51
2021/08/29 07:42:36;;;;;;;3.73;3.23;;;17.30;99.90;;;;;;5010462;28;20868;-51
2021/08/29 07:45:07;;;;;;;3.93;3.53;;;17.30;99.90;;;;;;5010072;28;20473;-51
2021/08/29 07:47:34;;;;;;;5.93;4.10;;;17.30;99.90;;;;;;5010291;28;21027;-51
2021/08/29 07:50:00;;;;;;;4.73;3.93;;;17.30;99.90;;;;;;5009999;28;20453;-51
2021/08/29 07:52:28;;;;;;;5.57;4.67;;;17.30;99.90;;;;;;5010207;28;20486;-52
2021/08/29 07:55:26;;;;;;;5.57;5.07;;;17.30;99.90;;;;;;5011281;28;20465;-53
2021/08/29 07:58:11;;;;;;;4.70;4.30;;;17.30;99.90;;;;;;5011369;28;20925;-52
2021/08/29 08:00:39;;;;;;;5.00;4.50;;;17.30;99.90;;;;;;5011403;28;20825;-52
2021/08/29 08:03:25;;;;;;;6.83;4.67;;;17.30;99.90;;;;;;5011635;28;20437;-53
2021/08/29 08:06:10;;;;;;;4.73;4.27;;;17.30;99.90;;;;;;5011496;28;20595;-52
2021/08/29 08:08:56;;;;;;;5.17;4.73;;;17.30;99.90;;;;;;5011239;28;20439;-51
2021/08/29 08:11:48;;;;;;;4.57;4.17;;;17.40;99.90;;;;;;5011031;28;20450;-53
2021/08/29 08:14:17;;;;;;;7.63;6.33;;;17.40;99.90;;;;;;5010170;28;20453;-52
2021/08/29 08:16:45;;;;;;;8.60;6.13;;;17.40;99.90;;;;;;5013919;28;20465;-51
2021/08/29 08:19:28;;;;;;;7.97;7.17;;;17.50;99.90;;;;;;5014571;28;20484;-52
2021/08/29 08:21:55;;;;;;;7.73;7.03;;;17.60;99.90;;;;;;5013494;28;20520;-51
2021/08/29 08:24:41;;;;;;;7.27;6.47;;;17.60;99.90;;;;;;5014928;28;20540;-52
2021/08/29 08:27:43;;;;;;;7.30;5.70;;;17.70;99.90;;;;;;4992402;28;20557;-52
2021/08/29 08:30:29;;;;;;;6.43;5.77;;;18.00;99.90;;;;;;5013521;28;20444;-52
2021/08/29 08:33:15;;;;;;;7.17;5.93;;;17.80;99.90;;;;;;5014885;28;20785;-52
2021/08/29 08:35:55;;;;;;;6.53;5.90;;;17.90;99.90;;;;;;5013166;28;20493;-52
2021/08/29 08:38:37;;;;;;;5.67;5.17;;;18.00;99.90;;;;;;5013438;28;20448;-52
2021/08/29 08:41:28;;;;;;;5.30;4.80;;;18.10;99.90;;;;;;5013590;28;20481;-51
2021/08/29 08:44:14;;;;;;;5.80;5.20;;;18.20;99.90;;;;;;5014519;28;20432;-52
2021/08/29 08:47:05;;;;;;;5.83;4.40;;;18.30;99.90;;;;;;5014967;28;20433;-52
2021/08/29 08:49:55;;;;;;;5.37;4.87;;;18.30;99.90;;;;;;5014048;28;20433;-52
2021/08/29 08:52:46;;;;;;;5.50;4.47;;;18.60;99.90;;;;;;5014210;28;20447;-52
2021/08/29 08:55:32;;;;;;;4.57;4.13;;;18.70;99.90;;;;;;5014350;28;20812;-51
2021/08/29 08:58:18;;;;;;;7.80;5.07;;;18.80;99.90;;;;;;5013882;28;20430;-52
2021/08/29 09:01:11;;;;;;;4.67;4.03;;;18.90;99.90;;;;;;5013671;28;20486;-52
2021/08/29 09:03:59;;;;;;;4.37;3.63;;;19.00;99.90;;;;;;5012427;28;20839;-52
2021/08/29 09:06:34;;;;;;;5.53;4.10;;;19.10;99.90;;;;;;5012566;28;20476;-52
2021/08/29 09:09:03;;;;;;;3.87;3.10;;;19.20;99.90;;;;;;5012054;28;20571;-52
2021/08/29 09:11:33;;;;;;;4.03;2.90;;;19.20;99.90;;;;;;5012619;28;20871;-52
2021/08/29 09:14:00;;;;;;;4.17;2.70;;;19.30;99.90;;;;;;5012446;28;20459;-52
2021/08/29 09:16:29;;;;;;;3.17;2.73;;;19.30;99.90;;;;;;5013507;28;20471;-53
2021/08/29 09:18:58;;;;;;;3.50;3.00;;;19.50;99.90;;;;;;5014015;28;20435;-53
2021/08/29 09:21:26;;;;;;;3.13;2.83;;;19.60;99.90;;;;;;5012609;28;20482;-53
2021/08/29 09:23:57;;;;;;;3.90;3.50;;;19.80;99.90;;;;;;5012601;28;20455;-52
2021/08/29 09:26:45;;;;;;;3.73;3.43;;;19.80;99.90;;;;;;5012273;28;20465;-52
2021/08/29 09:29:24;;;;;;;3.43;3.13;;;19.90;99.90;;;;;;5011623;28;20538;-52
2021/08/29 09:31:55;;;;;;;3.00;2.47;;;19.90;99.90;;;;;;5012202;28;20451;-52
2021/08/29 09:34:35;;;;;;;3.80;2.83;;;20.20;99.90;;;;;;5012398;28;20472;-52
2021/08/29 09:37:04;;;;;;;4.60;2.70;;;20.40;99.90;;;;;;5012956;28;20459;-52
2021/08/29 09:39:41;;;;;;;2.23;2.03;;;20.50;99.90;;;;;;5011793;28;20457;-52
2021/08/29 09:42:26;;;;;;;2.97;2.67;;;20.60;99.90;;;;;;5012900;28;20614;-52
2021/08/29 09:45:20;;;;;;;4.57;4.07;;;20.70;99.90;;;;;;5011785;28;20578;-52
2021/08/29 09:48:12;;;;;;;2.53;2.33;;;20.60;99.90;;;;;;4984348;28;20946;-53
2021/08/29 09:50:58;;;;;;;2.53;2.20;;;20.60;99.90;;;;;;5012743;28;20444;-52
2021/08/29 09:53:44;;;;;;;2.87;1.93;;;20.50;99.90;;;;;;5012771;28;20440;-51
2021/08/29 09:56:51;;;;;;;2.47;2.27;;;20.40;99.90;;;;;;5012877;28;20937;-51
2021/08/29 09:59:42;;;;;;;2.07;1.83;;;20.30;99.90;;;;;;5011751;28;20455;-52
2021/08/29 10:02:23;;;;;;;2.50;1.70;;;20.20;99.90;;;;;;5011366;28;20492;-53
2021/08/29 10:05:11;;;;;;;2.87;1.83;;;20.20;99.90;;;;;;5011278;28;21087;-53
2021/08/29 10:07:57;;;;;;;1.70;1.50;;;20.20;99.90;;;;;;5011073;28;20467;-53
2021/08/29 10:10:26;;;;;;;1.93;1.70;;;20.20;99.90;;;;;;5012500;28;20439;-52
2021/08/29 10:12:57;;;;;;;1.90;1.70;;;20.20;99.90;;;;;;5011227;28;20496;-52
2021/08/29 10:15:25;;;;;;;3.30;2.00;;;20.30;99.90;;;;;;5010989;28;20473;-52
2021/08/29 10:18:21;;;;;;;1.67;1.20;;;20.40;99.90;;;;;;5011682;28;20453;-54
2021/08/29 10:21:15;;;;;;;1.70;1.20;;;20.60;99.90;;;;;;5011481;28;20842;-52
2021/08/29 10:23:45;;;;;;;1.63;1.50;;;20.70;99.90;;;;;;5011191;28;20450;-52
2021/08/29 10:26:15;;;;;;;1.60;1.30;;;20.80;99.90;;;;;;5010774;28;20492;-52
2021/08/29 10:29:03;;;;;;;3.47;1.70;;;20.80;99.90;;;;;;5011911;28;20434;-52
2021/08/29 10:31:52;;;;;;;2.27;1.30;;;20.90;99.90;;;;;;5012676;28;20429;-52
2021/08/29 10:34:33;;;;;;;2.10;1.70;;;20.90;99.90;;;;;;5011108;28;20508;-52
2021/08/29 10:37:02;;;;;;;3.30;1.40;;;21.00;99.90;;;;;;5009531;28;20451;-52
2021/08/29 10:39:49;;;;;;;1.60;1.20;;;21.10;99.90;;;;;;5011607;28;20465;-52
2021/08/29 10:42:35;;;;;;;1.10;0.90;;;21.20;99.90;;;;;;5012276;28;20488;-51
2021/08/29 10:45:21;;;;;;;1.90;1.03;;;21.00;99.90;;;;;;5012034;28;20553;-51
2021/08/29 10:48:09;;;;;;;4.50;1.93;;;21.00;99.90;;;;;;5012049;28;20901;-52
2021/08/29 10:51:04;;;;;;;1.70;1.13;;;20.90;99.90;;;;;;5008959;28;20830;-52
2021/08/29 10:53:32;;;;;;;4.00;2.70;;;20.80;99.90;;;;;;5011024;28;20508;-52
2021/08/29 10:56:29;;;;;;;3.30;2.87;;;20.80;99.90;;;;;;5008400;28;20478;-52
2021/08/29 10:59:21;;;;;;;2.70;2.27;;;20.70;99.90;;;;;;5007891;28;20469;-53
2021/08/29 11:01:50;;;;;;;1.37;1.03;;;20.70;99.90;;;;;;5009339;28;20620;-53
2021/08/29 11:04:44;;;;;;;1.83;1.30;;;20.70;99.90;;;;;;5010790;28;20474;-52
2021/08/29 11:07:42;;;;;;;5.13;1.80;;;20.90;99.90;;;;;;5009724;28;20470;-52
2021/08/29 11:10:10;;;;;;;2.30;1.70;;;21.10;99.90;;;;;;5009096;28;20485;-52
2021/08/29 11:12:39;;;;;;;2.13;1.70;;;21.30;99.90;;;;;;5009545;28;20545;-52
2021/08/29 11:15:14;;;;;;;1.77;1.00;;;21.30;99.90;;;;;;5009652;28;20474;-52
2021/08/29 11:18:00;;;;;;;1.50;1.20;;;21.60;99.90;;;;;;5009218;28;20492;-53
2021/08/29 11:20:40;;;;;;;2.90;1.37;;;21.60;99.90;;;;;;5011135;28;20460;-52
2021/08/29 11:23:44;;;;;;;2.10;1.60;;;21.80;99.90;;;;;;5011032;28;20910;-52
2021/08/29 11:26:28;;;;;;;1.20;1.00;;;21.90;99.90;;;;;;5009306;28;20497;-52
2021/08/29 11:29:53;;;;;;;1.20;0.80;;;21.90;99.90;;;;;;5010735;28;20451;-52
2021/08/29 11:32:33;;;;;;;1.80;1.23;;;21.80;99.90;;;;;;5002647;28;20547;-52
2021/08/29 11:35:09;;;;;;;1.53;0.80;;;21.70;99.90;;;;;;5008017;28;20475;-52
2021/08/29 11:37:40;;;;;;;2.40;1.13;;;21.70;99.90;;;;;;5009217;28;20478;-52
2021/08/29 11:40:48;;;;;;;1.97;1.00;;;21.70;99.90;;;;;;5011140;28;20447;-51
2021/08/29 11:43:17;;;;;;;2.30;1.33;;;21.80;99.90;;;;;;5009552;28;20905;-53
2021/08/29 11:45:48;;;;;;;2.23;1.67;;;21.70;99.90;;;;;;5009595;28;20474;-52
2021/08/29 11:48:32;;;;;;;1.70;1.20;;;21.80;99.90;;;;;;5009134;28;20822;-52
2021/08/29 11:51:04;;;;;;;2.07;0.90;;;21.90;99.90;;;;;;5012420;28;20455;-51
2021/08/29 11:54:07;;;;;;;1.97;1.13;;;22.00;99.90;;;;;;5008832;28;20454;-53
2021/08/29 11:56:38;;;;;;;1.37;1.10;;;22.00;99.90;;;;;;5013118;28;20483;-52
2021/08/29 11:59:08;;;;;;;2.23;1.50;;;22.20;99.90;;;;;;5012875;28;20463;-53
2021/08/29 12:01:36;;;;;;;1.37;0.97;;;22.30;99.90;;;;;;5013526;28;20906;-51
2021/08/29 12:04:04;;;;;;;2.00;1.30;;;22.30;99.90;;;;;;5013637;28;20503;-51
2021/08/29 12:06:47;;;;;;;1.73;1.10;;;22.30;99.90;;;;;;5014033;28;20543;-52
2021/08/29 12:09:39;;;;;;;3.03;1.53;;;22.30;99.90;;;;;;5016504;28;20952;-52
2021/08/29 12:12:26;;;;;;;1.63;1.17;;;22.30;99.90;;;;;;5015106;28;20423;-51
2021/08/29 12:15:06;;;;;;;1.73;1.50;;;22.40;99.90;;;;;;5014880;28;20452;-52
2021/08/29 12:17:56;;;;;;;2.00;1.30;;;22.50;99.90;;;;;;5014867;28;20762;-51
2021/08/29 12:20:25;;;;;;;5.07;1.60;;;22.50;99.90;;;;;;5013298;28;20459;-53
2021/08/29 12:23:12;;;;;;;2.33;1.20;;;22.50;99.90;;;;;;5014734;28;20550;-51
2021/08/29 12:25:40;;;;;;;1.70;1.37;;;22.40;99.90;;;;;;5013849;28;20515;-53
2021/08/29 12:28:08;;;;;;;1.60;1.10;;;22.40;99.90;;;;;;5012602;28;20799;-53
2021/08/29 12:30:35;;;;;;;2.40;1.00;;;22.40;99.90;;;;;;5013191;28;20487;-53
2021/08/29 12:33:10;;;;;;;2.30;1.50;;;22.40;99.90;;;;;;5012766;28;20459;-53
2021/08/29 12:35:37;;;;;;;1.80;1.50;;;22.40;99.90;;;;;;5014118;28;20489;-53
2021/08/29 12:38:15;;;;;;;1.87;0.90;;;22.30;99.90;;;;;;5013972;28;20542;-53
2021/08/29 12:40:43;;;;;;;1.47;0.90;;;22.20;99.90;;;;;;5013051;28;20461;-54
2021/08/29 12:43:11;;;;;;;1.70;0.93;;;22.10;99.90;;;;;;5012390;28;20487;-53
2021/08/29 12:45:38;;;;;;;1.93;1.20;;;22.10;99.90;;;;;;5012575;28;20586;-53
2021/08/29 12:48:05;;;;;;;1.60;0.90;;;21.90;99.90;;;;;;5013454;28;20936;-53
2021/08/29 12:50:32;;;;;;;1.53;0.90;;;21.80;99.90;;;;;;5014110;28;20450;-53
2021/08/29 12:53:03;;;;;;;1.23;0.80;;;21.70;99.90;;;;;;5014157;28;20438;-53
2021/08/29 12:55:30;;;;;;;1.10;0.70;;;21.40;99.90;;;;;;5014014;28;20462;-53
2021/08/29 12:58:00;;;;;;;1.87;1.20;;;21.20;99.90;;;;;;5013694;28;20439;-53
2021/08/29 13:00:37;;;;;;;2.00;1.17;;;21.00;99.90;;;;;;5013518;28;20955;-53
2021/08/29 13:03:04;;;;;;;1.60;1.40;;;20.90;99.90;;;;;;5013244;28;20657;-54
2021/08/29 13:05:35;;;;;;;1.50;1.20;;;20.80;99.90;;;;;;5013692;28;20448;-53
2021/08/29 13:08:02;;;;;;;2.33;1.83;;;20.70;99.90;;;;;;5012790;28;20473;-53
2021/08/29 13:10:29;;;;;;;5.63;2.20;;;20.70;99.90;;;;;;5012263;28;20449;-53
2021/08/29 13:13:08;;;;;;;3.40;2.43;;;20.70;99.90;;;;;;5013455;28;20449;-53
2021/08/29 13:15:35;;;;;;;3.07;1.90;;;20.70;99.90;;;;;;5013500;28;20477;-55
2021/08/29 13:18:02;;;;;;;3.47;2.10;;;20.70;99.90;;;;;;5012510;28;20499;-53
2021/08/29 13:20:37;;;;;;;2.70;1.90;;;20.70;99.90;;;;;;5012880;28;20434;-53
2021/08/29 13:23:04;;;;;;;3.97;1.67;;;20.80;99.90;;;;;;5013069;28;20571;-53
2021/08/29 13:25:31;;;;;;;2.30;1.97;;;20.80;99.90;;;;;;5013972;28;20469;-53
2021/08/29 13:28:01;;;;;;;6.23;4.73;;;20.80;99.90;;;;;;5012245;28;20447;-54
2021/08/29 13:30:32;;;;;;;2.67;2.43;;;20.80;99.90;;;;;;5011032;28;20545;-54